Time;durP1;ratioP1;P1;durP2;ratioP2;P2;SDS_P1;SDS_P2;PMS_P1;PMS_P2;Temp;Humidity;BMP_temperature;BMP_pressure;BME280_temperature;BME280_humidity;BME280_pressure;Samples;Min_cycle;Max_cycle;Signal;HPM_P1;HPM_P2
2022/11/09 00:02:22;;;;;;;15.02;9.15;;;13.40;77.80;;;;;;5023723;28;20076;-74
2022/11/09 00:04:48;;;;;;;14.63;9.45;;;13.40;77.90;;;;;;5021606;28;20132;-74
2022/11/09 00:07:14;;;;;;;15.90;9.63;;;13.40;77.70;;;;;;5021538;28;20079;-75
2022/11/09 00:09:41;;;;;;;15.50;9.60;;;13.40;77.70;;;;;;5021087;28;20037;-75
2022/11/09 00:12:07;;;;;;;15.02;9.00;;;13.40;77.70;;;;;;5003477;28;20037;-75
2022/11/09 00:14:34;;;;;;;12.60;8.90;;;13.30;77.70;;;;;;5023317;28;20038;-76
2022/11/09 00:17:00;;;;;;;15.20;9.52;;;13.40;77.80;;;;;;4991752;28;20037;-76
2022/11/09 00:19:26;;;;;;;14.98;9.05;;;13.40;77.80;;;;;;5022147;28;20034;-76
2022/11/09 00:21:52;;;;;;;13.88;9.18;;;13.40;78.50;;;;;;5020250;28;20050;-76
2022/11/09 00:24:18;;;;;;;13.15;8.85;;;13.40;77.90;;;;;;5021293;28;20067;-75
2022/11/09 00:26:43;;;;;;;12.30;8.40;;;13.40;78.00;;;;;;5022528;28;21564;-75
2022/11/09 00:29:09;;;;;;;13.20;8.85;;;13.40;77.90;;;;;;5003163;28;20441;-75
2022/11/09 00:31:35;;;;;;;14.27;8.77;;;13.40;77.90;;;;;;5001762;28;20065;-75
2022/11/09 00:34:01;;;;;;;15.13;8.88;;;13.40;77.90;;;;;;4990969;28;20520;-75
2022/11/09 00:36:28;;;;;;;12.52;8.57;;;13.40;77.90;;;;;;4991183;28;20041;-74
2022/11/09 00:38:56;;;;;;;14.07;8.88;;;13.40;77.80;;;;;;5022125;28;20037;-75
2022/11/09 00:41:23;;;;;;;11.82;8.73;;;13.40;77.90;;;;;;5024482;28;20067;-75
2022/11/09 00:43:50;;;;;;;12.20;8.52;;;13.40;77.90;;;;;;4987331;28;20033;-75
2022/11/09 00:46:16;;;;;;;13.45;8.30;;;13.40;77.90;;;;;;5022150;28;20068;-75
2022/11/09 00:48:43;;;;;;;14.25;9.00;;;13.40;77.90;;;;;;5003374;28;20033;-75
2022/11/09 00:51:09;;;;;;;12.65;8.10;;;13.40;78.00;;;;;;5021831;28;20064;-74
2022/11/09 00:53:36;;;;;;;13.10;8.70;;;13.40;77.90;;;;;;5003403;28;20041;-74
2022/11/09 00:56:08;;;;;;;13.43;8.43;;;13.40;78.00;;;;;;5020648;28;20038;-75
2022/11/09 00:58:37;;;;;;;13.18;8.23;;;13.40;78.00;;;;;;4990850;28;20034;-74
2022/11/09 01:01:12;;;;;;;14.43;8.90;;;13.40;78.10;;;;;;5001549;28;20033;-74
2022/11/09 01:03:41;;;;;;;13.27;8.70;;;13.40;78.10;;;;;;5007077;28;20057;-73
2022/11/09 01:06:08;;;;;;;12.27;8.02;;;13.40;78.10;;;;;;5020234;28;20033;-73
2022/11/09 01:08:34;;;;;;;13.27;8.45;;;13.40;78.10;;;;;;5020312;28;20029;-73
2022/11/09 01:11:06;;;;;;;13.88;8.88;;;13.40;78.00;;;;;;5022200;28;20389;-74
2022/11/09 01:13:32;;;;;;;12.68;8.73;;;13.40;78.00;;;;;;5019616;28;20045;-73
2022/11/09 01:15:59;;;;;;;12.25;8.23;;;13.40;78.10;;;;;;5006859;28;20128;-73
2022/11/09 01:18:26;;;;;;;13.38;9.15;;;13.40;78.00;;;;;;5003261;28;20044;-74
2022/11/09 01:20:53;;;;;;;13.50;8.48;;;13.40;78.00;;;;;;5006431;28;20060;-73
2022/11/09 01:23:20;;;;;;;12.73;8.48;;;13.40;78.10;;;;;;5002416;28;20041;-74
2022/11/09 01:25:46;;;;;;;14.23;9.32;;;13.40;78.00;;;;;;5008139;28;20091;-73
2022/11/09 01:28:12;;;;;;;13.98;8.35;;;13.40;77.90;;;;;;5005390;28;20033;-73
2022/11/09 01:30:40;;;;;;;11.88;8.38;;;13.40;77.90;;;;;;5001612;28;20066;-73
2022/11/09 01:33:08;;;;;;;12.43;8.35;;;13.40;78.50;;;;;;5020599;28;20520;-73
2022/11/09 01:35:38;;;;;;;14.90;8.45;;;13.40;77.90;;;;;;5020412;28;20091;-74
2022/11/09 01:38:05;;;;;;;12.38;8.40;;;13.40;78.00;;;;;;5001090;28;20041;-73
2022/11/09 01:40:34;;;;;;;11.73;8.13;;;13.40;77.80;;;;;;5019730;28;20340;-74
2022/11/09 01:43:19;;;;;;;12.77;8.98;;;13.40;78.00;;;;;;4989108;28;20034;-73
2022/11/09 01:46:08;;;;;;;15.50;9.18;;;13.40;77.90;;;;;;5019528;28;20053;-73
2022/11/09 01:48:53;;;;;;;13.30;8.52;;;13.40;78.00;;;;;;5017814;28;20045;-74
2022/11/09 01:51:37;;;;;;;13.20;8.50;;;13.40;78.00;;;;;;5005707;28;20053;-73
2022/11/09 01:54:11;;;;;;;15.52;8.88;;;13.40;78.10;;;;;;5005754;28;20037;-73
2022/11/09 01:56:37;;;;;;;15.05;9.43;;;13.40;78.10;;;;;;5020330;28;20424;-73
2022/11/09 01:59:12;;;;;;;15.90;9.85;;;13.40;78.30;;;;;;5002198;28;20412;-74
2022/11/09 02:01:40;;;;;;;15.27;9.20;;;13.40;78.20;;;;;;5005440;28;20088;-73
2022/11/09 02:04:11;;;;;;;15.00;8.85;;;13.40;78.10;;;;;;4974600;28;20068;-74
2022/11/09 02:06:37;;;;;;;13.93;8.68;;;13.40;78.20;;;;;;5005810;28;20036;-74
2022/11/09 02:09:17;;;;;;;15.43;9.50;;;13.40;78.30;;;;;;5018126;28;20030;-74
2022/11/09 02:11:43;;;;;;;12.43;8.77;;;13.40;78.20;;;;;;5016735;28;20119;-74
2022/11/09 02:14:10;;;;;;;16.75;9.98;;;13.40;78.20;;;;;;5002166;28;20195;-74
2022/11/09 02:16:37;;;;;;;14.05;9.35;;;13.40;78.20;;;;;;5002876;28;20025;-74
2022/11/09 02:19:03;;;;;;;14.07;9.00;;;13.40;78.20;;;;;;5001066;28;20040;-74
2022/11/09 02:21:31;;;;;;;15.10;9.63;;;13.40;78.30;;;;;;5005764;28;20493;-74
2022/11/09 02:23:58;;;;;;;14.35;9.45;;;13.40;78.30;;;;;;5001277;28;20114;-74
2022/11/09 02:26:37;;;;;;;14.05;9.57;;;13.40;78.40;;;;;;5001708;28;20033;-74
2022/11/09 02:29:06;;;;;;;14.38;9.27;;;13.40;78.30;;;;;;4999560;28;20124;-73
2022/11/09 02:31:41;;;;;;;15.20;10.00;;;13.40;78.40;;;;;;4989946;28;20038;-74
2022/11/09 02:34:12;;;;;;;13.83;9.53;;;13.40;78.30;;;;;;5006476;28;20029;-73
2022/11/09 02:36:38;;;;;;;15.55;10.18;;;13.40;78.30;;;;;;4985975;28;20298;-74
2022/11/09 02:39:10;;;;;;;16.30;9.85;;;13.40;78.30;;;;;;4989971;28;20033;-74
2022/11/09 02:41:52;;;;;;;15.55;9.93;;;13.50;78.40;;;;;;5002303;28;20063;-74
2022/11/09 02:44:18;;;;;;;14.80;9.00;;;13.50;78.30;;;;;;5002851;28;20179;-74
2022/11/09 02:46:45;;;;;;;14.35;9.43;;;13.40;78.30;;;;;;5002172;28;20440;-73
2022/11/09 02:49:13;;;;;;;12.80;9.20;;;13.50;78.50;;;;;;5001183;28;20057;-73
2022/11/09 02:51:38;;;;;;;16.23;9.55;;;13.40;78.50;;;;;;4985156;28;20144;-73
2022/11/09 02:54:04;;;;;;;17.67;9.95;;;13.50;78.60;;;;;;5006749;28;20124;-73
2022/11/09 02:56:30;;;;;;;14.52;9.15;;;13.50;78.70;;;;;;5001801;28;20037;-73
2022/11/09 02:58:56;;;;;;;16.00;10.32;;;13.50;78.70;;;;;;5000027;28;20511;-72
2022/11/09 03:01:22;;;;;;;16.35;9.25;;;13.50;78.80;;;;;;4988601;28;20057;-74
2022/11/09 03:03:48;;;;;;;13.60;9.23;;;13.50;78.70;;;;;;5022412;28;20125;-74
2022/11/09 03:06:14;;;;;;;15.95;9.40;;;13.50;79.20;;;;;;4988618;28;20053;-75
2022/11/09 03:08:43;;;;;;;15.50;9.25;;;13.50;78.70;;;;;;4997104;28;20120;-73
2022/11/09 03:11:10;;;;;;;13.60;8.70;;;13.50;78.80;;;;;;4999812;28;20021;-73
2022/11/09 03:13:36;;;;;;;13.27;8.63;;;13.50;78.70;;;;;;5001166;28;20092;-75
2022/11/09 03:16:07;;;;;;;12.43;9.05;;;13.50;78.90;;;;;;4989588;28;20037;-72
2022/11/09 03:18:36;;;;;;;13.90;8.90;;;13.50;78.90;;;;;;5002329;28;20034;-75
2022/11/09 03:21:04;;;;;;;12.57;8.45;;;13.50;78.80;;;;;;5021847;28;20045;-75
2022/11/09 03:23:31;;;;;;;13.07;8.40;;;13.50;78.70;;;;;;5022778;28;20041;-75
2022/11/09 03:25:57;;;;;;;12.00;7.88;;;13.50;78.70;;;;;;5013555;28;20477;-74
2022/11/09 03:28:23;;;;;;;12.00;8.38;;;13.50;78.70;;;;;;4997898;28;20420;-74
2022/11/09 03:30:51;;;;;;;13.10;7.63;;;13.50;78.70;;;;;;5010290;28;20037;-74
2022/11/09 03:33:17;;;;;;;11.55;7.57;;;13.50;78.60;;;;;;5007277;28;20037;-74
2022/11/09 03:35:44;;;;;;;11.57;7.85;;;13.60;79.20;;;;;;4991906;28;21021;-72
2022/11/09 03:38:12;;;;;;;13.45;8.77;;;13.60;78.50;;;;;;5008737;28;20046;-73
2022/11/09 03:40:39;;;;;;;11.90;7.97;;;13.60;78.70;;;;;;5004305;28;20046;-70
2022/11/09 03:43:05;;;;;;;12.18;7.60;;;13.60;78.80;;;;;;5008145;28;20044;-70
2022/11/09 03:45:32;;;;;;;11.95;8.00;;;13.60;78.80;;;;;;5008297;28;20095;-70
2022/11/09 03:47:59;;;;;;;9.85;7.07;;;13.50;78.70;;;;;;5021610;28;20077;-71
2022/11/09 03:50:27;;;;;;;11.52;7.10;;;13.60;78.80;;;;;;5004604;28;20053;-70
2022/11/09 03:52:53;;;;;;;9.32;6.95;;;13.60;78.60;;;;;;5021606;28;20043;-71
2022/11/09 03:55:19;;;;;;;12.10;7.75;;;13.60;78.60;;;;;;5021180;28;20079;-71
2022/11/09 03:57:45;;;;;;;11.63;6.85;;;13.60;78.40;;;;;;5021876;28;20473;-74
2022/11/09 04:00:14;;;;;;;10.80;7.25;;;13.60;78.40;;;;;;5021474;28;20039;-73
2022/11/09 04:02:40;;;;;;;9.98;6.20;;;13.60;78.40;;;;;;5022875;28;20044;-73
2022/11/09 04:05:07;;;;;;;8.75;6.53;;;13.60;78.30;;;;;;5022956;28;20033;-73
2022/11/09 04:07:32;;;;;;;8.98;6.45;;;13.60;78.20;;;;;;5003570;28;20046;-71
2022/11/09 04:09:58;;;;;;;9.85;6.57;;;13.60;78.10;;;;;;5021695;28;20029;-71
2022/11/09 04:12:24;;;;;;;9.60;6.70;;;13.60;78.20;;;;;;5022001;28;20033;-72
2022/11/09 04:14:50;;;;;;;9.50;6.88;;;13.60;78.50;;;;;;5021485;28;20404;-72
2022/11/09 04:17:16;;;;;;;10.98;6.82;;;13.60;79.40;;;;;;5021393;28;20026;-72
2022/11/09 04:19:42;;;;;;;11.43;6.68;;;13.60;79.30;;;;;;5022055;28;20037;-72
2022/11/09 04:22:08;;;;;;;10.93;6.95;;;13.60;79.50;;;;;;5020792;28;20100;-71
2022/11/09 04:24:34;;;;;;;12.60;6.85;;;13.70;79.60;;;;;;5022333;28;20045;-72
2022/11/09 04:27:00;;;;;;;13.95;7.55;;;13.70;79.70;;;;;;5003631;28;20029;-72
2022/11/09 04:29:25;;;;;;;10.98;7.15;;;13.70;79.80;;;;;;5018963;28;20044;-71
2022/11/09 04:31:51;;;;;;;11.77;7.60;;;13.70;79.70;;;;;;5020264;28;20037;-72
2022/11/09 04:34:17;;;;;;;13.00;7.78;;;13.70;79.90;;;;;;5020618;28;20125;-71
2022/11/09 04:36:43;;;;;;;11.55;7.45;;;13.70;79.90;;;;;;5020459;28;20103;-71
2022/11/09 04:39:10;;;;;;;11.40;6.82;;;13.70;79.70;;;;;;5020497;28;20112;-71
2022/11/09 04:41:36;;;;;;;12.75;7.35;;;13.70;79.50;;;;;;5021203;28;20519;-71
2022/11/09 04:44:02;;;;;;;11.02;7.30;;;13.70;79.50;;;;;;5024571;28;20030;-73
2022/11/09 04:46:28;;;;;;;10.52;7.13;;;13.70;79.70;;;;;;5029655;28;20132;-73
2022/11/09 04:48:54;;;;;;;10.63;7.13;;;13.70;79.60;;;;;;5028988;28;20129;-73
2022/11/09 04:51:20;;;;;;;11.20;7.43;;;13.70;79.70;;;;;;5030944;28;20038;-76
2022/11/09 04:53:45;;;;;;;12.80;7.45;;;13.80;79.60;;;;;;5031371;28;20041;-76
2022/11/09 04:56:12;;;;;;;13.95;7.75;;;13.70;79.60;;;;;;5012113;28;20515;-76
2022/11/09 04:58:38;;;;;;;10.05;7.20;;;13.80;79.60;;;;;;5006479;28;20033;-76
2022/11/09 05:01:11;;;;;;;10.75;7.88;;;13.80;79.60;;;;;;5020300;28;20041;-75
2022/11/09 05:03:38;;;;;;;12.98;6.95;;;13.70;79.60;;;;;;5020277;28;20132;-76
2022/11/09 05:06:30;;;;;;;12.07;7.30;;;13.70;79.40;;;;;;5020373;28;20041;-76
2022/11/09 05:08:51;;;;;;;9.60;7.15;;;13.80;79.50;;;;;;5020046;28;20033;-76
2022/11/09 05:11:17;;;;;;;12.60;7.78;;;13.80;79.30;;;;;;5022797;28;20505;-76
2022/11/09 05:13:43;;;;;;;11.40;6.97;;;13.80;79.50;;;;;;5004862;28;20049;-76
2022/11/09 05:16:10;;;;;;;12.13;7.72;;;13.80;79.60;;;;;;5002243;28;20055;-75
2022/11/09 05:18:36;;;;;;;11.88;8.32;;;13.80;79.70;;;;;;5003015;28;20068;-76
2022/11/09 05:21:02;;;;;;;10.68;7.43;;;13.80;79.90;;;;;;5004835;28;20037;-76
2022/11/09 05:26:14;;;;;;;12.52;6.82;;;13.80;79.70;;;;;;5021259;28;20042;-75
2022/11/09 05:28:40;;;;;;;10.63;6.95;;;13.90;79.60;;;;;;5018720;28;20455;-75
2022/11/09 05:31:06;;;;;;;12.73;8.10;;;13.90;79.80;;;;;;5019219;28;20041;-76
2022/11/09 05:33:32;;;;;;;12.63;7.45;;;13.90;80.20;;;;;;5019488;28;20041;-76
2022/11/09 05:35:58;;;;;;;11.05;7.28;;;13.90;79.80;;;;;;5003897;28;20420;-75
2022/11/09 05:38:24;;;;;;;10.38;6.85;;;13.90;79.40;;;;;;5018470;28;20033;-75
2022/11/09 05:40:53;;;;;;;9.85;6.95;;;13.90;79.30;;;;;;5021038;28;20030;-75
2022/11/09 05:43:20;;;;;;;8.65;6.28;;;13.90;79.00;;;;;;5020372;28;20508;-75
2022/11/09 05:45:46;;;;;;;10.27;6.32;;;13.90;79.10;;;;;;5019799;28;20180;-75
2022/11/09 05:48:14;;;;;;;9.80;7.25;;;13.90;79.00;;;;;;5020633;28;20044;-75
2022/11/09 05:50:41;;;;;;;9.35;5.93;;;13.90;79.00;;;;;;5019259;28;20053;-74
2022/11/09 05:53:25;;;;;;;10.68;6.65;;;13.90;79.10;;;;;;5006692;28;21379;-74
2022/11/09 05:55:51;;;;;;;8.75;6.15;;;13.90;79.00;;;;;;5019743;28;20026;-74
2022/11/09 05:58:17;;;;;;;9.18;6.47;;;13.90;79.00;;;;;;5002297;28;20083;-75
2022/11/09 06:00:43;;;;;;;10.73;7.20;;;13.90;78.80;;;;;;5019916;28;20073;-75
2022/11/09 06:03:10;;;;;;;10.13;6.72;;;13.90;78.70;;;;;;5002532;28;20400;-75
2022/11/09 06:05:38;;;;;;;9.45;6.53;;;14.00;78.70;;;;;;5001592;28;20045;-75
2022/11/09 06:08:12;;;;;;;8.52;6.35;;;14.00;78.60;;;;;;5019543;28;20108;-76
2022/11/09 06:10:39;;;;;;;11.70;7.00;;;14.00;78.60;;;;;;5018994;28;20453;-74
2022/11/09 06:13:05;;;;;;;8.23;6.28;;;14.00;78.60;;;;;;5020235;28;22134;-73
2022/11/09 06:15:31;;;;;;;10.07;6.95;;;14.00;78.50;;;;;;5020379;28;20196;-76
2022/11/09 06:17:58;;;;;;;9.65;7.72;;;14.00;78.90;;;;;;5001415;28;20057;-77
2022/11/09 06:20:26;;;;;;;11.95;8.00;;;14.00;78.70;;;;;;5002503;28;20033;-77
2022/11/09 06:22:59;;;;;;;13.20;8.38;;;14.00;78.50;;;;;;5019047;28;20030;-76
2022/11/09 06:25:25;;;;;;;12.95;8.10;;;13.90;78.30;;;;;;5018821;28;20077;-76
2022/11/09 06:27:54;;;;;;;12.45;8.55;;;13.90;78.20;;;;;;5019901;28;20219;-76
2022/11/09 06:30:20;;;;;;;12.35;8.40;;;13.80;78.20;;;;;;5020000;28;20056;-78
2022/11/09 06:32:45;;;;;;;14.13;9.02;;;13.80;78.20;;;;;;5018963;28;20853;-75
2022/11/09 06:35:12;;;;;;;13.35;8.68;;;13.80;78.40;;;;;;5019519;28;20053;-76
2022/11/09 06:37:37;;;;;;;12.73;8.65;;;13.70;78.40;;;;;;5017999;28;20033;-76
2022/11/09 06:40:04;;;;;;;12.23;9.13;;;13.70;78.50;;;;;;5018168;28;20068;-76
2022/11/09 06:42:30;;;;;;;11.57;8.18;;;13.70;78.50;;;;;;5020375;28;20029;-76
2022/11/09 06:44:56;;;;;;;14.18;8.30;;;13.60;78.50;;;;;;5004430;28;20460;-75
2022/11/09 06:47:22;;;;;;;14.15;8.43;;;13.60;78.50;;;;;;5005492;28;20030;-76
2022/11/09 06:49:48;;;;;;;15.57;8.45;;;13.60;78.60;;;;;;5018275;28;20033;-76
2022/11/09 06:52:14;;;;;;;12.65;8.13;;;13.60;78.70;;;;;;5019041;28;20038;-76
2022/11/09 06:54:40;;;;;;;12.32;8.48;;;13.60;78.80;;;;;;5020292;28;20416;-78
2022/11/09 06:57:06;;;;;;;11.43;8.60;;;13.60;78.80;;;;;;5004238;28;20037;-76
2022/11/09 06:59:33;;;;;;;14.55;8.73;;;13.50;78.80;;;;;;5025470;28;20037;-77
2022/11/09 07:01:59;;;;;;;10.70;8.50;;;13.50;78.90;;;;;;5005178;28;20033;-76
2022/11/09 07:04:25;;;;;;;15.57;8.80;;;13.50;78.90;;;;;;5022109;28;20037;-76
2022/11/09 07:06:51;;;;;;;10.43;8.07;;;13.50;79.00;;;;;;5005938;28;20543;-76
2022/11/09 07:09:17;;;;;;;12.05;8.45;;;13.50;79.00;;;;;;5023874;28;20030;-77
2022/11/09 07:11:43;;;;;;;12.73;7.95;;;13.50;79.10;;;;;;5003924;28;20065;-77
2022/11/09 07:14:09;;;;;;;14.27;8.25;;;13.50;79.20;;;;;;5022502;28;20033;-77
2022/11/09 07:16:36;;;;;;;15.10;8.57;;;13.50;79.30;;;;;;5023557;28;20073;-77
2022/11/09 07:19:02;;;;;;;12.00;8.25;;;13.50;79.30;;;;;;5021329;28;20033;-77
2022/11/09 07:21:27;;;;;;;11.85;8.13;;;13.40;79.30;;;;;;5022959;28;20033;-77
2022/11/09 07:23:53;;;;;;;10.43;7.43;;;13.40;79.50;;;;;;5004195;28;20037;-78
2022/11/09 07:26:19;;;;;;;13.05;8.65;;;13.50;79.70;;;;;;5022365;28;20527;-77
2022/11/09 07:28:46;;;;;;;10.52;8.13;;;13.40;79.70;;;;;;5022775;28;20160;-76
2022/11/09 07:31:12;;;;;;;11.52;8.13;;;13.50;80.40;;;;;;5007772;28;20030;-77
2022/11/09 07:33:38;;;;;;;13.77;8.45;;;13.50;79.90;;;;;;5004510;28;20038;-76
2022/11/09 07:36:04;;;;;;;12.88;8.82;;;13.50;79.90;;;;;;5023633;28;20408;-77
2022/11/09 07:38:31;;;;;;;12.20;8.38;;;13.50;80.60;;;;;;5006144;28;20029;-77
2022/11/09 07:41:00;;;;;;;12.65;8.77;;;13.50;80.20;;;;;;5021904;28;20057;-77
2022/11/09 07:43:27;;;;;;;12.85;8.27;;;13.50;80.20;;;;;;5022027;28;20421;-76
2022/11/09 07:45:57;;;;;;;12.82;8.30;;;13.50;80.30;;;;;;4988851;28;20037;-77
2022/11/09 07:48:23;;;;;;;13.18;8.35;;;13.50;80.40;;;;;;5008664;28;20053;-76
2022/11/09 07:50:49;;;;;;;12.32;8.75;;;13.50;81.00;;;;;;5020415;28;20136;-77
2022/11/09 07:53:16;;;;;;;13.00;9.07;;;13.50;80.40;;;;;;5005326;28;20064;-76
2022/11/09 07:55:43;;;;;;;10.82;8.18;;;13.50;80.40;;;;;;5007420;28;20045;-77
2022/11/09 07:58:14;;;;;;;12.70;8.13;;;13.50;80.40;;;;;;5004184;28;20072;-77
2022/11/09 08:00:42;;;;;;;12.18;8.65;;;13.50;80.50;;;;;;5021093;28;20029;-78
2022/11/09 08:03:08;;;;;;;13.63;8.73;;;13.50;80.60;;;;;;5022275;28;20030;-77
2022/11/09 08:05:34;;;;;;;13.30;8.02;;;13.50;80.70;;;;;;5021666;28;20045;-78
2022/11/09 08:08:04;;;;;;;10.93;7.43;;;13.50;80.80;;;;;;5019480;28;20508;-77
2022/11/09 08:10:32;;;;;;;13.65;8.35;;;13.50;80.80;;;;;;5005399;28;20065;-75
2022/11/09 08:13:00;;;;;;;10.85;7.55;;;13.40;80.80;;;;;;5020899;28;20084;-77
2022/11/09 08:15:27;;;;;;;13.30;8.88;;;13.40;80.80;;;;;;5002734;28;20668;-75
2022/11/09 08:17:53;;;;;;;11.13;8.43;;;13.50;80.90;;;;;;5023826;28;20579;-77
2022/11/09 08:20:19;;;;;;;12.77;8.15;;;13.40;80.80;;;;;;5022321;28;20553;-78
2022/11/09 08:22:46;;;;;;;11.15;7.78;;;13.40;80.90;;;;;;5003188;28;20427;-76
2022/11/09 08:25:13;;;;;;;16.70;8.20;;;13.50;81.00;;;;;;5007975;28;20534;-77
2022/11/09 08:27:39;;;;;;;12.30;8.48;;;13.40;81.00;;;;;;5022382;28;20064;-77
2022/11/09 08:30:07;;;;;;;11.80;8.70;;;13.50;81.00;;;;;;5021462;28;20088;-76
2022/11/09 08:32:33;;;;;;;12.05;8.02;;;13.50;81.10;;;;;;5020286;28;20076;-77
2022/11/09 08:35:01;;;;;;;12.48;8.43;;;13.40;81.10;;;;;;5022839;28;20057;-77
2022/11/09 08:37:27;;;;;;;12.75;8.57;;;13.40;81.10;;;;;;5007404;28;20690;-78
2022/11/09 08:39:53;;;;;;;10.85;7.80;;;13.40;81.20;;;;;;5007653;28;20042;-77
2022/11/09 08:42:19;;;;;;;12.25;8.25;;;13.40;81.20;;;;;;5019922;28;20516;-78
2022/11/09 08:44:44;;;;;;;13.05;8.73;;;13.50;81.40;;;;;;5008632;28;20531;-78
2022/11/09 08:47:10;;;;;;;12.10;8.07;;;13.40;81.30;;;;;;5002674;28;20467;-78
2022/11/09 08:49:36;;;;;;;12.60;8.35;;;13.50;81.50;;;;;;5002816;28;20038;-77
2022/11/09 08:52:02;;;;;;;11.43;7.68;;;13.40;81.40;;;;;;5020782;28;20124;-77
2022/11/09 08:54:28;;;;;;;12.82;8.23;;;13.50;81.40;;;;;;4990196;28;20030;-77
2022/11/09 08:56:54;;;;;;;13.43;8.63;;;13.50;81.50;;;;;;5007605;28;20455;-78
2022/11/09 08:59:21;;;;;;;16.45;8.63;;;13.50;81.60;;;;;;5021369;28;20400;-78
2022/11/09 09:01:47;;;;;;;13.23;8.70;;;13.50;81.60;;;;;;5019720;28;20539;-77
2022/11/09 09:04:13;;;;;;;12.73;8.10;;;13.50;81.60;;;;;;5021877;28;20037;-78
2022/11/09 09:06:38;;;;;;;13.20;8.77;;;13.50;81.50;;;;;;5006531;28;20045;-77
2022/11/09 09:09:04;;;;;;;14.23;9.00;;;13.50;81.60;;;;;;5020619;28;20041;-77
2022/11/09 09:11:30;;;;;;;12.82;8.57;;;13.50;81.50;;;;;;5021018;28;20133;-77
2022/11/09 09:13:56;;;;;;;12.23;7.97;;;13.50;81.50;;;;;;5020420;28;20505;-78
2022/11/09 09:16:22;;;;;;;13.25;8.63;;;13.60;81.50;;;;;;5020398;28;20436;-78
2022/11/09 09:18:48;;;;;;;11.80;7.97;;;13.50;81.50;;;;;;5021341;28;20048;-77
2022/11/09 09:21:14;;;;;;;11.93;7.97;;;13.50;81.40;;;;;;5003897;28;20501;-77
2022/11/09 09:23:40;;;;;;;14.00;9.00;;;13.60;81.50;;;;;;5019430;28;20037;-78
2022/11/09 09:26:06;;;;;;;15.50;10.68;;;13.50;81.40;;;;;;5020805;28;20504;-76
2022/11/09 09:28:33;;;;;;;14.23;9.15;;;13.50;81.40;;;;;;5021256;28;20169;-77
2022/11/09 09:31:00;;;;;;;13.70;9.27;;;13.50;81.40;;;;;;5001097;28;20029;-78
2022/11/09 09:33:27;;;;;;;12.10;8.30;;;13.50;81.40;;;;;;5007081;28;20037;-77
2022/11/09 09:35:57;;;;;;;13.45;8.35;;;13.50;81.40;;;;;;5003555;28;20042;-79
2022/11/09 09:38:24;;;;;;;11.93;7.85;;;13.60;81.40;;;;;;5022855;28;20099;-80
2022/11/09 09:40:56;;;;;;;10.52;7.28;;;13.50;81.40;;;;;;5002402;28;20132;-79
2022/11/09 09:43:44;;;;;;;10.13;7.57;;;13.50;81.40;;;;;;5003897;28;20049;-79
2022/11/09 09:46:29;;;;;;;11.23;7.50;;;13.50;81.50;;;;;;5001831;28;20037;-79
2022/11/09 09:49:04;;;;;;;10.45;6.53;;;13.50;81.40;;;;;;5003099;28;20099;-79
2022/11/09 09:51:49;;;;;;;10.75;6.93;;;13.60;81.50;;;;;;5021306;28;20050;-80
2022/11/09 09:54:19;;;;;;;9.75;6.75;;;13.50;81.60;;;;;;5019418;28;20038;-80
2022/11/09 09:56:48;;;;;;;11.70;7.13;;;13.60;81.60;;;;;;5001511;28;20064;-78
2022/11/09 09:59:24;;;;;;;7.55;6.50;;;13.60;81.60;;;;;;5023667;28;20526;-78
2022/11/09 10:01:50;;;;;;;10.73;7.47;;;13.60;81.80;;;;;;5005060;28;20080;-78
2022/11/09 10:04:22;;;;;;;10.55;7.20;;;13.60;81.80;;;;;;5001505;28;20037;-79
2022/11/09 10:07:28;;;;;;;8.25;6.60;;;13.60;81.80;;;;;;5017816;28;20508;-78
2022/11/09 10:09:56;;;;;;;10.60;7.20;;;13.60;81.90;;;;;;5019544;28;20037;-78
2022/11/09 10:12:53;;;;;;;8.93;6.50;;;13.60;81.90;;;;;;5003840;28;20403;-78
2022/11/09 10:15:30;;;;;;;10.77;7.13;;;13.60;82.00;;;;;;5002887;28;20041;-79
2022/11/09 10:18:18;;;;;;;10.90;7.22;;;13.60;81.80;;;;;;4999817;28;20120;-79
2022/11/09 10:21:08;;;;;;;9.90;7.30;;;13.60;81.90;;;;;;4989006;28;20079;-79
2022/11/09 10:23:55;;;;;;;8.55;6.82;;;13.60;81.90;;;;;;5002272;28;20108;-78
2022/11/09 10:26:29;;;;;;;11.02;7.45;;;13.60;81.90;;;;;;5019933;28;20033;-78
2022/11/09 10:29:00;;;;;;;9.80;7.32;;;13.60;81.90;;;;;;5020298;28;20405;-78
2022/11/09 10:31:31;;;;;;;10.95;6.97;;;13.60;81.90;;;;;;5018618;28;20038;-78
2022/11/09 10:34:02;;;;;;;11.63;7.05;;;13.60;82.00;;;;;;5001407;28;20390;-79
2022/11/09 10:36:40;;;;;;;9.27;6.80;;;13.60;81.90;;;;;;5018812;28;20034;-78
2022/11/09 10:39:11;;;;;;;11.00;7.22;;;13.60;82.00;;;;;;5000747;28;20714;-78
2022/11/09 10:41:55;;;;;;;10.40;7.22;;;13.60;82.00;;;;;;5020590;28;20038;-79
2022/11/09 10:44:40;;;;;;;10.52;6.85;;;13.60;82.00;;;;;;5019916;28;20021;-77
2022/11/09 10:47:25;;;;;;;11.18;7.43;;;13.60;82.10;;;;;;5021785;28;20594;-80
2022/11/09 10:50:44;;;;;;;10.52;7.28;;;13.60;82.20;;;;;;4999727;28;20111;-80
2022/11/09 10:53:33;;;;;;;12.98;7.97;;;13.60;82.20;;;;;;5006052;28;20038;-78
2022/11/09 10:56:19;;;;;;;14.57;7.50;;;13.60;82.30;;;;;;5005531;28;20572;-77
2022/11/09 10:59:42;;;;;;;11.63;7.85;;;13.60;82.30;;;;;;5018411;28;20128;-77
2022/11/09 11:02:27;;;;;;;11.48;7.65;;;13.60;82.40;;;;;;5020105;28;21254;-78
2022/11/09 11:05:18;;;;;;;10.65;7.57;;;13.60;82.50;;;;;;5019480;28;20041;-78
2022/11/09 11:08:24;;;;;;;12.02;7.85;;;13.60;82.50;;;;;;5019686;28;20128;-78
2022/11/09 11:11:17;;;;;;;11.20;7.50;;;13.60;82.60;;;;;;5000969;28;20044;-79
2022/11/09 11:14:28;;;;;;;10.90;7.03;;;13.60;82.70;;;;;;5000107;28;20124;-80
2022/11/09 11:17:28;;;;;;;11.30;7.40;;;13.60;82.80;;;;;;5021081;28;20040;-79
2022/11/09 11:20:29;;;;;;;11.85;7.40;;;13.60;82.80;;;;;;5004797;28;20496;-77
2022/11/09 11:23:21;;;;;;;12.85;7.88;;;13.60;82.90;;;;;;5018015;28;20091;-78
2022/11/09 11:26:24;;;;;;;9.45;6.82;;;13.50;83.00;;;;;;5022159;28;20037;-78
2022/11/09 11:29:27;;;;;;;11.82;7.53;;;13.60;83.20;;;;;;5018774;28;20029;-78
2022/11/09 11:32:15;;;;;;;9.25;6.75;;;13.50;83.20;;;;;;5020771;28;20417;-78
2022/11/09 11:35:00;;;;;;;10.40;7.20;;;13.60;83.30;;;;;;5018275;28;20073;-78
2022/11/09 11:38:01;;;;;;;15.70;10.35;;;13.60;83.40;;;;;;5019243;28;20064;-78
2022/11/09 11:41:00;;;;;;;12.38;8.50;;;13.50;83.40;;;;;;5019230;28;20040;-78
2022/11/09 11:44:12;;;;;;;11.38;7.85;;;13.50;84.10;;;;;;5020894;28;20451;-78
2022/11/09 11:47:28;;;;;;;10.82;7.60;;;13.50;83.50;;;;;;5023573;28;20125;-78
2022/11/09 11:50:33;;;;;;;10.73;7.75;;;13.50;83.60;;;;;;5022656;28;20065;-78
2022/11/09 11:54:08;;;;;;;9.93;7.30;;;13.50;83.70;;;;;;5022816;28;20057;-78
2022/11/09 11:56:59;;;;;;;12.02;8.00;;;13.60;83.80;;;;;;4991872;28;20563;-78
2022/11/09 12:00:05;;;;;;;11.60;7.43;;;13.50;83.80;;;;;;5003780;28;20500;-77
2022/11/09 12:03:31;;;;;;;10.30;7.38;;;13.50;84.00;;;;;;5008435;28;20095;-78
2022/11/09 12:06:21;;;;;;;8.52;5.90;;;13.60;83.40;;;;;;4909196;29;20505;-77
2022/11/09 12:09:17;;;;;;;8.85;6.25;;;13.60;82.70;;;;;;5008257;28;20046;-77
2022/11/09 12:12:38;;;;;;;9.02;6.00;;;13.70;82.50;;;;;;5022363;28;20037;-77
2022/11/09 12:15:48;;;;;;;10.07;6.07;;;13.70;82.10;;;;;;5020197;28;20063;-76
2022/11/09 12:19:00;;;;;;;9.77;6.43;;;13.80;81.90;;;;;;5021774;28;20123;-76
2022/11/09 12:21:54;;;;;;;10.00;6.25;;;13.80;81.90;;;;;;5022074;28;20041;-76
2022/11/09 12:24:41;;;;;;;9.35;5.32;;;13.80;81.70;;;;;;5005033;28;20298;-77
2022/11/09 12:27:34;;;;;;;8.32;5.85;;;13.90;81.50;;;;;;5021971;28;20134;-76
2022/11/09 12:30:20;;;;;;;9.95;5.85;;;13.80;81.40;;;;;;5022541;28;20116;-77
2022/11/09 12:33:30;;;;;;;9.35;6.22;;;13.90;81.30;;;;;;5019844;28;20088;-76
2022/11/09 12:36:25;;;;;;;8.77;6.20;;;13.90;81.20;;;;;;5006921;28;20040;-76
2022/11/09 12:39:25;;;;;;;7.57;5.60;;;13.90;81.10;;;;;;4999932;28;20079;-77
2022/11/09 12:42:34;;;;;;;8.00;5.75;;;13.90;80.90;;;;;;5019647;28;20030;-76
2022/11/09 12:45:31;;;;;;;8.02;6.05;;;13.90;80.80;;;;;;5022227;28;20041;-76
2022/11/09 12:48:24;;;;;;;8.45;5.85;;;13.90;80.80;;;;;;5003103;28;20578;-75
2022/11/09 12:51:09;;;;;;;10.30;6.10;;;13.90;80.80;;;;;;5022277;28;20141;-73
2022/11/09 12:53:54;;;;;;;8.23;5.80;;;13.90;80.70;;;;;;5021761;28;20513;-78
2022/11/09 12:56:54;;;;;;;7.10;5.53;;;13.90;80.70;;;;;;5008750;28;20052;-81
2022/11/09 12:59:53;;;;;;;8.10;5.70;;;14.00;80.70;;;;;;5023567;28;20548;-81
2022/11/09 13:02:52;;;;;;;6.93;4.88;;;13.90;81.20;;;;;;5022653;28;20067;-81
2022/11/09 13:05:38;;;;;;;6.63;5.28;;;13.90;80.50;;;;;;5021034;28;20058;-78
2022/11/09 13:08:28;;;;;;;6.40;4.85;;;13.90;80.60;;;;;;5004190;28;20029;-76
2022/11/09 13:11:21;;;;;;;6.63;4.80;;;14.00;80.70;;;;;;5020141;28;20045;-75
2022/11/09 13:14:21;;;;;;;6.68;5.13;;;14.00;80.60;;;;;;5010488;28;20065;-75